sensor_id;sensor_type;location;lat;lon;timestamp;P1;durP1;ratioP1;P2;durP2;ratioP2
46308;SDS011;32037;50.820;6.494;2022-07-23T00:01:40;7.17;;;6.47;;
46308;SDS011;32037;50.820;6.494;2022-07-23T00:04:08;6.10;;;5.60;;
46308;SDS011;32037;50.820;6.494;2022-07-23T00:06:38;6.33;;;5.80;;
46308;SDS011;32037;50.820;6.494;2022-07-23T00:09:07;7.20;;;6.60;;
46308;SDS011;32037;50.820;6.494;2022-07-23T00:11:36;7.60;;;6.87;;
46308;SDS011;32037;50.820;6.494;2022-07-23T00:14:04;6.67;;;6.13;;
46308;SDS011;32037;50.820;6.494;2022-07-23T00:16:33;6.60;;;6.10;;
46308;SDS011;32037;50.820;6.494;2022-07-23T00:19:01;6.30;;;5.80;;
46308;SDS011;32037;50.820;6.494;2022-07-23T00:21:30;6.17;;;5.67;;
46308;SDS011;32037;50.820;6.494;2022-07-23T00:24:00;6.47;;;5.97;;
46308;SDS011;32037;50.820;6.494;2022-07-23T00:26:28;6.20;;;5.70;;
46308;SDS011;32037;50.820;6.494;2022-07-23T00:28:57;5.97;;;5.57;;
46308;SDS011;32037;50.820;6.494;2022-07-23T00:31:26;6.17;;;5.57;;
46308;SDS011;32037;50.820;6.494;2022-07-23T00:33:54;6.70;;;6.10;;
46308;SDS011;32037;50.820;6.494;2022-07-23T00:36:23;6.90;;;6.30;;
46308;SDS011;32037;50.820;6.494;2022-07-23T00:38:52;7.00;;;6.40;;
46308;SDS011;32037;50.820;6.494;2022-07-23T00:41:21;6.53;;;6.03;;
46308;SDS011;32037;50.820;6.494;2022-07-23T00:43:50;5.97;;;5.47;;
46308;SDS011;32037;50.820;6.494;2022-07-23T00:46:19;6.00;;;5.50;;
46308;SDS011;32037;50.820;6.494;2022-07-23T00:48:48;6.47;;;5.97;;
46308;SDS011;32037;50.820;6.494;2022-07-23T00:51:16;5.90;;;5.40;;
46308;SDS011;32037;50.820;6.494;2022-07-23T00:53:45;6.33;;;5.83;;
46308;SDS011;32037;50.820;6.494;2022-07-23T00:56:13;6.20;;;5.67;;
46308;SDS011;32037;50.820;6.494;2022-07-23T00:58:44;5.40;;;5.00;;
46308;SDS011;32037;50.820;6.494;2022-07-23T01:01:13;6.80;;;6.20;;
46308;SDS011;32037;50.820;6.494;2022-07-23T01:03:41;5.83;;;5.33;;
46308;SDS011;32037;50.820;6.494;2022-07-23T01:06:10;5.87;;;5.37;;
46308;SDS011;32037;50.820;6.494;2022-07-23T01:08:38;6.13;;;5.70;;
46308;SDS011;32037;50.820;6.494;2022-07-23T01:11:07;6.20;;;5.70;;
46308;SDS011;32037;50.820;6.494;2022-07-23T01:13:36;5.93;;;5.43;;
46308;SDS011;32037;50.820;6.494;2022-07-23T01:16:09;5.63;;;5.23;;
46308;SDS011;32037;50.820;6.494;2022-07-23T01:18:38;6.23;;;5.63;;
46308;SDS011;32037;50.820;6.494;2022-07-23T01:21:07;5.67;;;5.20;;
46308;SDS011;32037;50.820;6.494;2022-07-23T01:23:39;5.70;;;5.20;;
46308;SDS011;32037;50.820;6.494;2022-07-23T01:26:07;6.23;;;5.73;;
46308;SDS011;32037;50.820;6.494;2022-07-23T01:28:37;5.07;;;4.63;;
46308;SDS011;32037;50.820;6.494;2022-07-23T01:31:06;6.40;;;5.80;;
46308;SDS011;32037;50.820;6.494;2022-07-23T01:33:35;5.57;;;5.17;;
46308;SDS011;32037;50.820;6.494;2022-07-23T01:36:06;5.50;;;5.10;;
46308;SDS011;32037;50.820;6.494;2022-07-23T01:38:35;5.20;;;4.80;;
46308;SDS011;32037;50.820;6.494;2022-07-23T01:41:05;5.57;;;5.07;;
46308;SDS011;32037;50.820;6.494;2022-07-23T01:43:34;6.07;;;5.60;;
46308;SDS011;32037;50.820;6.494;2022-07-23T01:46:03;5.90;;;5.40;;
46308;SDS011;32037;50.820;6.494;2022-07-23T01:48:37;5.93;;;5.33;;
46308;SDS011;32037;50.820;6.494;2022-07-23T01:51:24;5.63;;;5.13;;
46308;SDS011;32037;50.820;6.494;2022-07-23T01:53:59;5.90;;;5.40;;
46308;SDS011;32037;50.820;6.494;2022-07-23T01:56:29;5.87;;;5.47;;
46308;SDS011;32037;50.820;6.494;2022-07-23T01:58:57;4.90;;;4.50;;
46308;SDS011;32037;50.820;6.494;2022-07-23T02:01:26;5.73;;;5.33;;
46308;SDS011;32037;50.820;6.494;2022-07-23T02:03:55;5.10;;;4.70;;
46308;SDS011;32037;50.820;6.494;2022-07-23T02:06:23;5.43;;;5.03;;
46308;SDS011;32037;50.820;6.494;2022-07-23T02:08:51;4.87;;;4.47;;
46308;SDS011;32037;50.820;6.494;2022-07-23T02:11:21;5.57;;;5.07;;
46308;SDS011;32037;50.820;6.494;2022-07-23T02:13:51;5.10;;;4.70;;
46308;SDS011;32037;50.820;6.494;2022-07-23T02:16:20;5.00;;;4.60;;
46308;SDS011;32037;50.820;6.494;2022-07-23T02:18:49;5.83;;;5.33;;
46308;SDS011;32037;50.820;6.494;2022-07-23T02:21:17;5.77;;;5.27;;
46308;SDS011;32037;50.820;6.494;2022-07-23T02:23:45;5.83;;;5.33;;
46308;SDS011;32037;50.820;6.494;2022-07-23T02:26:13;5.10;;;4.70;;
46308;SDS011;32037;50.820;6.494;2022-07-23T02:28:48;4.53;;;4.23;;
46308;SDS011;32037;50.820;6.494;2022-07-23T02:31:19;5.37;;;4.97;;
46308;SDS011;32037;50.820;6.494;2022-07-23T02:33:47;4.60;;;4.27;;
46308;SDS011;32037;50.820;6.494;2022-07-23T02:36:16;4.40;;;4.10;;
46308;SDS011;32037;50.820;6.494;2022-07-23T02:38:46;5.23;;;4.73;;
46308;SDS011;32037;50.820;6.494;2022-07-23T02:41:14;5.20;;;4.80;;
46308;SDS011;32037;50.820;6.494;2022-07-23T02:43:42;5.07;;;4.67;;
46308;SDS011;32037;50.820;6.494;2022-07-23T02:46:13;5.90;;;5.40;;
46308;SDS011;32037;50.820;6.494;2022-07-23T02:48:42;5.60;;;5.10;;
46308;SDS011;32037;50.820;6.494;2022-07-23T02:51:11;6.27;;;5.77;;
46308;SDS011;32037;50.820;6.494;2022-07-23T02:53:47;5.40;;;4.90;;
46308;SDS011;32037;50.820;6.494;2022-07-23T02:56:15;4.00;;;3.70;;
46308;SDS011;32037;50.820;6.494;2022-07-23T02:58:43;4.97;;;4.57;;
46308;SDS011;32037;50.820;6.494;2022-07-23T03:01:15;5.57;;;5.17;;
46308;SDS011;32037;50.820;6.494;2022-07-23T03:03:46;4.83;;;4.43;;
46308;SDS011;32037;50.820;6.494;2022-07-23T03:06:14;4.93;;;4.50;;
46308;SDS011;32037;50.820;6.494;2022-07-23T03:08:43;4.93;;;4.53;;
46308;SDS011;32037;50.820;6.494;2022-07-23T03:11:12;5.23;;;4.73;;
46308;SDS011;32037;50.820;6.494;2022-07-23T03:13:42;4.50;;;4.10;;
46308;SDS011;32037;50.820;6.494;2022-07-23T03:16:11;4.70;;;4.40;;
46308;SDS011;32037;50.820;6.494;2022-07-23T03:18:42;4.87;;;4.47;;
46308;SDS011;32037;50.820;6.494;2022-07-23T03:21:11;4.53;;;4.13;;
46308;SDS011;32037;50.820;6.494;2022-07-23T03:23:39;4.30;;;4.00;;
46308;SDS011;32037;50.820;6.494;2022-07-23T03:26:07;4.40;;;4.10;;
46308;SDS011;32037;50.820;6.494;2022-07-23T03:28:36;5.00;;;4.60;;
46308;SDS011;32037;50.820;6.494;2022-07-23T03:31:04;4.33;;;4.03;;
46308;SDS011;32037;50.820;6.494;2022-07-23T03:33:35;4.93;;;4.53;;
46308;SDS011;32037;50.820;6.494;2022-07-23T03:36:03;4.57;;;4.27;;
46308;SDS011;32037;50.820;6.494;2022-07-23T03:38:38;5.17;;;4.77;;
46308;SDS011;32037;50.820;6.494;2022-07-23T03:41:06;4.80;;;4.50;;
46308;SDS011;32037;50.820;6.494;2022-07-23T03:43:35;4.60;;;4.20;;
46308;SDS011;32037;50.820;6.494;2022-07-23T03:46:03;4.87;;;4.50;;
46308;SDS011;32037;50.820;6.494;2022-07-23T03:48:33;5.70;;;5.30;;
46308;SDS011;32037;50.820;6.494;2022-07-23T03:51:03;4.47;;;4.17;;
46308;SDS011;32037;50.820;6.494;2022-07-23T03:53:31;3.73;;;3.43;;
46308;SDS011;32037;50.820;6.494;2022-07-23T03:56:00;4.73;;;4.33;;
46308;SDS011;32037;50.820;6.494;2022-07-23T03:58:29;4.90;;;4.50;;
46308;SDS011;32037;50.820;6.494;2022-07-23T04:00:57;4.57;;;4.17;;
46308;SDS011;32037;50.820;6.494;2022-07-23T04:03:25;4.60;;;4.20;;
46308;SDS011;32037;50.820;6.494;2022-07-23T04:05:55;5.10;;;4.70;;
46308;SDS011;32037;50.820;6.494;2022-07-23T04:08:24;4.63;;;4.30;;
46308;SDS011;32037;50.820;6.494;2022-07-23T04:10:52;4.77;;;4.37;;
46308;SDS011;32037;50.820;6.494;2022-07-23T04:13:22;4.80;;;4.40;;
46308;SDS011;32037;50.820;6.494;2022-07-23T04:15:50;4.97;;;4.47;;
46308;SDS011;32037;50.820;6.494;2022-07-23T04:18:19;4.77;;;4.37;;
46308;SDS011;32037;50.820;6.494;2022-07-23T04:21:01;3.93;;;3.53;;
46308;SDS011;32037;50.820;6.494;2022-07-23T04:23:30;4.07;;;3.77;;
46308;SDS011;32037;50.820;6.494;2022-07-23T04:25:58;4.60;;;4.20;;
46308;SDS011;32037;50.820;6.494;2022-07-23T04:28:26;4.13;;;3.83;;
46308;SDS011;32037;50.820;6.494;2022-07-23T04:30:55;4.60;;;4.20;;
46308;SDS011;32037;50.820;6.494;2022-07-23T04:33:24;4.30;;;4.00;;
46308;SDS011;32037;50.820;6.494;2022-07-23T04:35:55;5.00;;;4.60;;
46308;SDS011;32037;50.820;6.494;2022-07-23T04:38:25;4.20;;;3.90;;
46308;SDS011;32037;50.820;6.494;2022-07-23T04:40:58;4.00;;;3.70;;
46308;SDS011;32037;50.820;6.494;2022-07-23T04:43:26;4.17;;;3.87;;
46308;SDS011;32037;50.820;6.494;2022-07-23T04:45:54;4.23;;;3.93;;
46308;SDS011;32037;50.820;6.494;2022-07-23T04:48:24;4.43;;;4.13;;
46308;SDS011;32037;50.820;6.494;2022-07-23T04:51:03;3.90;;;3.60;;
46308;SDS011;32037;50.820;6.494;2022-07-23T04:53:34;4.50;;;3.97;;
46308;SDS011;32037;50.820;6.494;2022-07-23T04:56:04;4.00;;;3.70;;
46308;SDS011;32037;50.820;6.494;2022-07-23T04:58:33;4.43;;;4.03;;
46308;SDS011;32037;50.820;6.494;2022-07-23T05:01:02;4.83;;;4.43;;
46308;SDS011;32037;50.820;6.494;2022-07-23T05:03:33;4.87;;;4.47;;
46308;SDS011;32037;50.820;6.494;2022-07-23T05:06:01;3.80;;;3.50;;
46308;SDS011;32037;50.820;6.494;2022-07-23T05:08:30;4.00;;;3.70;;
46308;SDS011;32037;50.820;6.494;2022-07-23T05:11:00;3.90;;;3.60;;
46308;SDS011;32037;50.820;6.494;2022-07-23T05:13:29;4.53;;;4.13;;
46308;SDS011;32037;50.820;6.494;2022-07-23T05:15:57;4.60;;;4.27;;
46308;SDS011;32037;50.820;6.494;2022-07-23T05:18:26;3.83;;;3.53;;
46308;SDS011;32037;50.820;6.494;2022-07-23T05:20:54;4.60;;;4.30;;
46308;SDS011;32037;50.820;6.494;2022-07-23T05:23:22;4.13;;;3.83;;
46308;SDS011;32037;50.820;6.494;2022-07-23T05:25:51;4.83;;;4.43;;
46308;SDS011;32037;50.820;6.494;2022-07-23T05:28:22;4.27;;;3.87;;
46308;SDS011;32037;50.820;6.494;2022-07-23T05:30:52;4.60;;;4.20;;
46308;SDS011;32037;50.820;6.494;2022-07-23T05:33:23;3.40;;;3.10;;
46308;SDS011;32037;50.820;6.494;2022-07-23T05:35:52;4.87;;;4.47;;
46308;SDS011;32037;50.820;6.494;2022-07-23T05:38:26;3.97;;;3.67;;
46308;SDS011;32037;50.820;6.494;2022-07-23T05:40:58;3.73;;;3.43;;
46308;SDS011;32037;50.820;6.494;2022-07-23T05:43:29;3.90;;;3.60;;
46308;SDS011;32037;50.820;6.494;2022-07-23T05:46:02;3.93;;;3.63;;
46308;SDS011;32037;50.820;6.494;2022-07-23T05:48:31;4.30;;;4.00;;
46308;SDS011;32037;50.820;6.494;2022-07-23T05:51:23;4.10;;;3.80;;
46308;SDS011;32037;50.820;6.494;2022-07-23T05:53:52;3.80;;;3.50;;
46308;SDS011;32037;50.820;6.494;2022-07-23T05:56:24;4.57;;;4.17;;
46308;SDS011;32037;50.820;6.494;2022-07-23T05:58:53;3.60;;;3.13;;
46308;SDS011;32037;50.820;6.494;2022-07-23T06:01:22;3.80;;;3.57;;
46308;SDS011;32037;50.820;6.494;2022-07-23T06:03:59;4.20;;;3.73;;
46308;SDS011;32037;50.820;6.494;2022-07-23T06:06:33;3.77;;;3.47;;
46308;SDS011;32037;50.820;6.494;2022-07-23T06:09:02;4.00;;;3.67;;
46308;SDS011;32037;50.820;6.494;2022-07-23T06:11:31;6.00;;;5.40;;
46308;SDS011;32037;50.820;6.494;2022-07-23T06:14:01;9.40;;;8.20;;
46308;SDS011;32037;50.820;6.494;2022-07-23T06:16:44;11.37;;;8.93;;
46308;SDS011;32037;50.820;6.494;2022-07-23T06:19:12;9.67;;;8.67;;
46308;SDS011;32037;50.820;6.494;2022-07-23T06:21:40;9.00;;;8.10;;
46308;SDS011;32037;50.820;6.494;2022-07-23T06:24:14;10.70;;;9.60;;
46308;SDS011;32037;50.820;6.494;2022-07-23T06:26:42;12.67;;;10.17;;
46308;SDS011;32037;50.820;6.494;2022-07-23T06:29:12;10.00;;;9.00;;
46308;SDS011;32037;50.820;6.494;2022-07-23T06:31:41;12.30;;;11.07;;
46308;SDS011;32037;50.820;6.494;2022-07-23T06:34:09;12.23;;;11.00;;
46308;SDS011;32037;50.820;6.494;2022-07-23T06:36:38;12.93;;;11.63;;
46308;SDS011;32037;50.820;6.494;2022-07-23T06:39:08;11.80;;;8.67;;
46308;SDS011;32037;50.820;6.494;2022-07-23T06:41:37;17.23;;;14.70;;
46308;SDS011;32037;50.820;6.494;2022-07-23T06:44:05;14.90;;;13.50;;
46308;SDS011;32037;50.820;6.494;2022-07-23T06:46:35;15.37;;;13.77;;
46308;SDS011;32037;50.820;6.494;2022-07-23T06:49:04;21.00;;;17.80;;
46308;SDS011;32037;50.820;6.494;2022-07-23T06:51:33;15.73;;;13.37;;
46308;SDS011;32037;50.820;6.494;2022-07-23T06:54:02;14.27;;;12.77;;
46308;SDS011;32037;50.820;6.494;2022-07-23T06:56:31;12.00;;;10.60;;
46308;SDS011;32037;50.820;6.494;2022-07-23T06:58:59;13.00;;;11.77;;
46308;SDS011;32037;50.820;6.494;2022-07-23T07:01:28;12.53;;;11.23;;
46308;SDS011;32037;50.820;6.494;2022-07-23T07:03:58;12.03;;;10.40;;
46308;SDS011;32037;50.820;6.494;2022-07-23T07:06:26;12.27;;;11.17;;
46308;SDS011;32037;50.820;6.494;2022-07-23T07:08:54;12.90;;;11.20;;
46308;SDS011;32037;50.820;6.494;2022-07-23T07:11:22;10.43;;;9.33;;
46308;SDS011;32037;50.820;6.494;2022-07-23T07:13:52;11.13;;;10.07;;
46308;SDS011;32037;50.820;6.494;2022-07-23T07:16:21;11.47;;;10.33;;
46308;SDS011;32037;50.820;6.494;2022-07-23T07:18:57;12.13;;;10.93;;
46308;SDS011;32037;50.820;6.494;2022-07-23T07:21:26;11.40;;;10.27;;
46308;SDS011;32037;50.820;6.494;2022-07-23T07:23:57;14.47;;;10.83;;
46308;SDS011;32037;50.820;6.494;2022-07-23T07:26:25;11.27;;;10.10;;
46308;SDS011;32037;50.820;6.494;2022-07-23T07:28:53;11.03;;;9.90;;
46308;SDS011;32037;50.820;6.494;2022-07-23T07:31:22;10.50;;;9.40;;
46308;SDS011;32037;50.820;6.494;2022-07-23T07:33:50;10.20;;;9.30;;
46308;SDS011;32037;50.820;6.494;2022-07-23T07:36:19;10.43;;;9.33;;
46308;SDS011;32037;50.820;6.494;2022-07-23T07:38:48;10.57;;;9.43;;
46308;SDS011;32037;50.820;6.494;2022-07-23T07:41:16;10.80;;;8.90;;
46308;SDS011;32037;50.820;6.494;2022-07-23T07:43:49;10.37;;;9.17;;
46308;SDS011;32037;50.820;6.494;2022-07-23T07:46:18;9.17;;;8.40;;
46308;SDS011;32037;50.820;6.494;2022-07-23T07:48:49;13.77;;;12.37;;
46308;SDS011;32037;50.820;6.494;2022-07-23T07:51:24;13.40;;;11.90;;
46308;SDS011;32037;50.820;6.494;2022-07-23T07:53:53;12.87;;;10.90;;
46308;SDS011;32037;50.820;6.494;2022-07-23T07:56:22;15.50;;;11.47;;
46308;SDS011;32037;50.820;6.494;2022-07-23T07:58:51;14.53;;;12.00;;
46308;SDS011;32037;50.820;6.494;2022-07-23T08:01:20;14.10;;;12.20;;
46308;SDS011;32037;50.820;6.494;2022-07-23T08:03:49;14.53;;;12.97;;
46308;SDS011;32037;50.820;6.494;2022-07-23T08:06:17;14.57;;;13.07;;
46308;SDS011;32037;50.820;6.494;2022-07-23T08:08:48;12.80;;;11.70;;
46308;SDS011;32037;50.820;6.494;2022-07-23T08:11:16;15.07;;;13.67;;
46308;SDS011;32037;50.820;6.494;2022-07-23T08:13:45;18.00;;;16.30;;
46308;SDS011;32037;50.820;6.494;2022-07-23T08:16:13;16.63;;;15.00;;
46308;SDS011;32037;50.820;6.494;2022-07-23T08:18:42;19.37;;;16.63;;
46308;SDS011;32037;50.820;6.494;2022-07-23T08:21:11;14.90;;;13.40;;
46308;SDS011;32037;50.820;6.494;2022-07-23T08:23:39;15.57;;;13.93;;
46308;SDS011;32037;50.820;6.494;2022-07-23T08:26:11;14.33;;;11.20;;
46308;SDS011;32037;50.820;6.494;2022-07-23T08:28:39;11.67;;;10.57;;
46308;SDS011;32037;50.820;6.494;2022-07-23T08:31:07;13.37;;;11.30;;
46308;SDS011;32037;50.820;6.494;2022-07-23T08:33:38;12.63;;;11.30;;
46308;SDS011;32037;50.820;6.494;2022-07-23T08:36:06;12.30;;;11.10;;
46308;SDS011;32037;50.820;6.494;2022-07-23T08:38:35;15.07;;;13.10;;
46308;SDS011;32037;50.820;6.494;2022-07-23T08:41:04;14.37;;;12.97;;
46308;SDS011;32037;50.820;6.494;2022-07-23T08:43:36;13.50;;;12.20;;
46308;SDS011;32037;50.820;6.494;2022-07-23T08:46:08;12.13;;;10.57;;
46308;SDS011;32037;50.820;6.494;2022-07-23T08:48:37;11.83;;;10.53;;
46308;SDS011;32037;50.820;6.494;2022-07-23T08:51:06;13.27;;;11.97;;
46308;SDS011;32037;50.820;6.494;2022-07-23T08:53:37;11.90;;;10.67;;
46308;SDS011;32037;50.820;6.494;2022-07-23T08:56:07;12.77;;;11.40;;
46308;SDS011;32037;50.820;6.494;2022-07-23T08:58:38;13.57;;;12.27;;
46308;SDS011;32037;50.820;6.494;2022-07-23T09:01:06;13.93;;;12.43;;
46308;SDS011;32037;50.820;6.494;2022-07-23T09:03:35;13.27;;;12.07;;
46308;SDS011;32037;50.820;6.494;2022-07-23T09:06:06;12.47;;;10.93;;
46308;SDS011;32037;50.820;6.494;2022-07-23T09:08:35;11.77;;;10.57;;
46308;SDS011;32037;50.820;6.494;2022-07-23T09:11:05;13.40;;;10.80;;
46308;SDS011;32037;50.820;6.494;2022-07-23T09:13:38;11.13;;;10.17;;
46308;SDS011;32037;50.820;6.494;2022-07-23T09:16:11;9.97;;;8.83;;
46308;SDS011;32037;50.820;6.494;2022-07-23T09:18:42;11.90;;;10.80;;
46308;SDS011;32037;50.820;6.494;2022-07-23T09:21:13;12.20;;;11.10;;
46308;SDS011;32037;50.820;6.494;2022-07-23T09:23:48;9.83;;;8.93;;
46308;SDS011;32037;50.820;6.494;2022-07-23T09:26:27;10.83;;;9.73;;
46308;SDS011;32037;50.820;6.494;2022-07-23T09:29:02;10.40;;;9.53;;
46308;SDS011;32037;50.820;6.494;2022-07-23T09:31:42;9.67;;;8.77;;
46308;SDS011;32037;50.820;6.494;2022-07-23T09:34:14;10.43;;;9.30;;
46308;SDS011;32037;50.820;6.494;2022-07-23T09:36:45;7.50;;;6.90;;
46308;SDS011;32037;50.820;6.494;2022-07-23T09:39:16;7.40;;;6.80;;
46308;SDS011;32037;50.820;6.494;2022-07-23T09:41:54;7.00;;;6.50;;
46308;SDS011;32037;50.820;6.494;2022-07-23T09:44:24;7.20;;;6.60;;
46308;SDS011;32037;50.820;6.494;2022-07-23T09:46:59;6.87;;;6.10;;
46308;SDS011;32037;50.820;6.494;2022-07-23T09:49:28;7.03;;;6.53;;
46308;SDS011;32037;50.820;6.494;2022-07-23T09:51:58;7.07;;;6.47;;
46308;SDS011;32037;50.820;6.494;2022-07-23T09:54:32;6.57;;;6.07;;
46308;SDS011;32037;50.820;6.494;2022-07-23T09:57:03;8.33;;;7.63;;
46308;SDS011;32037;50.820;6.494;2022-07-23T09:59:36;7.70;;;7.10;;
46308;SDS011;32037;50.820;6.494;2022-07-23T10:02:07;12.10;;;8.40;;
46308;SDS011;32037;50.820;6.494;2022-07-23T10:04:53;7.00;;;6.40;;
46308;SDS011;32037;50.820;6.494;2022-07-23T10:07:31;6.83;;;6.23;;
46308;SDS011;32037;50.820;6.494;2022-07-23T10:10:20;9.60;;;8.60;;
46308;SDS011;32037;50.820;6.494;2022-07-23T10:13:18;7.03;;;6.53;;
46308;SDS011;32037;50.820;6.494;2022-07-23T10:16:05;6.53;;;6.03;;
46308;SDS011;32037;50.820;6.494;2022-07-23T10:18:36;6.90;;;6.17;;
46308;SDS011;32037;50.820;6.494;2022-07-23T10:21:10;6.67;;;6.03;;
46308;SDS011;32037;50.820;6.494;2022-07-23T10:23:42;5.83;;;5.43;;
46308;SDS011;32037;50.820;6.494;2022-07-23T10:26:19;5.50;;;5.07;;
46308;SDS011;32037;50.820;6.494;2022-07-23T10:29:00;6.43;;;5.83;;
46308;SDS011;32037;50.820;6.494;2022-07-23T10:31:45;5.67;;;5.13;;
46308;SDS011;32037;50.820;6.494;2022-07-23T10:34:30;7.33;;;6.10;;
46308;SDS011;32037;50.820;6.494;2022-07-23T10:37:07;8.63;;;7.73;;
46308;SDS011;32037;50.820;6.494;2022-07-23T10:39:47;6.53;;;5.93;;
46308;SDS011;32037;50.820;6.494;2022-07-23T10:42:37;6.17;;;5.67;;
46308;SDS011;32037;50.820;6.494;2022-07-23T10:45:25;6.20;;;5.80;;
46308;SDS011;32037;50.820;6.494;2022-07-23T10:48:12;6.57;;;6.00;;
46308;SDS011;32037;50.820;6.494;2022-07-23T10:50:43;6.50;;;5.70;;
46308;SDS011;32037;50.820;6.494;2022-07-23T10:53:54;8.17;;;6.43;;
46308;SDS011;32037;50.820;6.494;2022-07-23T10:59:25;8.60;;;5.67;;
46308;SDS011;32037;50.820;6.494;2022-07-23T11:02:03;5.37;;;4.97;;
46308;SDS011;32037;50.820;6.494;2022-07-23T11:04:50;6.00;;;5.60;;
46308;SDS011;32037;50.820;6.494;2022-07-23T11:07:21;9.57;;;5.57;;
46308;SDS011;32037;50.820;6.494;2022-07-23T11:09:49;7.70;;;6.47;;
46308;SDS011;32037;50.820;6.494;2022-07-23T11:12:36;9.53;;;6.63;;
46308;SDS011;32037;50.820;6.494;2022-07-23T11:15:06;7.43;;;6.67;;
46308;SDS011;32037;50.820;6.494;2022-07-23T11:17:38;6.73;;;6.03;;
46308;SDS011;32037;50.820;6.494;2022-07-23T11:20:28;5.80;;;5.30;;
46308;SDS011;32037;50.820;6.494;2022-07-23T11:22:57;5.63;;;5.13;;
46308;SDS011;32037;50.820;6.494;2022-07-23T11:25:31;5.57;;;5.07;;
46308;SDS011;32037;50.820;6.494;2022-07-23T11:28:08;5.37;;;4.87;;
46308;SDS011;32037;50.820;6.494;2022-07-23T11:30:39;5.00;;;4.60;;
46308;SDS011;32037;50.820;6.494;2022-07-23T11:33:15;4.87;;;4.47;;
46308;SDS011;32037;50.820;6.494;2022-07-23T11:35:47;4.33;;;4.03;;
46308;SDS011;32037;50.820;6.494;2022-07-23T11:38:18;6.10;;;5.27;;
46308;SDS011;32037;50.820;6.494;2022-07-23T11:40:48;4.60;;;4.20;;
46308;SDS011;32037;50.820;6.494;2022-07-23T11:43:18;8.00;;;4.20;;
46308;SDS011;32037;50.820;6.494;2022-07-23T11:45:48;4.50;;;4.10;;
46308;SDS011;32037;50.820;6.494;2022-07-23T11:48:19;5.10;;;4.70;;
46308;SDS011;32037;50.820;6.494;2022-07-23T11:50:50;5.67;;;5.17;;
46308;SDS011;32037;50.820;6.494;2022-07-23T11:53:23;4.77;;;4.37;;
46308;SDS011;32037;50.820;6.494;2022-07-23T11:56:02;5.53;;;5.03;;
46308;SDS011;32037;50.820;6.494;2022-07-23T11:58:31;4.90;;;4.50;;
46308;SDS011;32037;50.820;6.494;2022-07-23T12:01:00;10.43;;;4.93;;
46308;SDS011;32037;50.820;6.494;2022-07-23T12:03:29;4.97;;;4.30;;
46308;SDS011;32037;50.820;6.494;2022-07-23T12:05:59;8.23;;;4.73;;
46308;SDS011;32037;50.820;6.494;2022-07-23T12:08:28;4.93;;;4.63;;
46308;SDS011;32037;50.820;6.494;2022-07-23T12:10:56;5.23;;;4.73;;
46308;SDS011;32037;50.820;6.494;2022-07-23T12:13:25;4.30;;;4.00;;
46308;SDS011;32037;50.820;6.494;2022-07-23T12:15:54;5.60;;;4.37;;
46308;SDS011;32037;50.820;6.494;2022-07-23T12:18:25;4.57;;;4.17;;
46308;SDS011;32037;50.820;6.494;2022-07-23T12:20:55;4.33;;;3.90;;
46308;SDS011;32037;50.820;6.494;2022-07-23T12:23:26;4.10;;;3.70;;
46308;SDS011;32037;50.820;6.494;2022-07-23T12:25:55;4.20;;;3.90;;
46308;SDS011;32037;50.820;6.494;2022-07-23T12:28:29;4.20;;;3.90;;
46308;SDS011;32037;50.820;6.494;2022-07-23T12:31:00;5.00;;;3.87;;
46308;SDS011;32037;50.820;6.494;2022-07-23T12:33:29;4.87;;;4.37;;
46308;SDS011;32037;50.820;6.494;2022-07-23T12:36:00;4.63;;;4.20;;
46308;SDS011;32037;50.820;6.494;2022-07-23T12:38:38;5.30;;;4.40;;
46308;SDS011;32037;50.820;6.494;2022-07-23T12:41:08;3.87;;;3.57;;
46308;SDS011;32037;50.820;6.494;2022-07-23T12:43:37;4.50;;;4.10;;
46308;SDS011;32037;50.820;6.494;2022-07-23T12:46:06;4.43;;;4.03;;
46308;SDS011;32037;50.820;6.494;2022-07-23T12:48:36;4.33;;;4.03;;
46308;SDS011;32037;50.820;6.494;2022-07-23T12:51:07;5.20;;;4.00;;
46308;SDS011;32037;50.820;6.494;2022-07-23T12:53:45;4.50;;;4.20;;
46308;SDS011;32037;50.820;6.494;2022-07-23T12:57:55;4.10;;;3.80;;
46308;SDS011;32037;50.820;6.494;2022-07-23T13:03:34;3.77;;;3.47;;
46308;SDS011;32037;50.820;6.494;2022-07-23T13:06:07;4.57;;;4.17;;
46308;SDS011;32037;50.820;6.494;2022-07-23T13:08:38;4.90;;;4.50;;
46308;SDS011;32037;50.820;6.494;2022-07-23T13:11:08;3.90;;;3.60;;
46308;SDS011;32037;50.820;6.494;2022-07-23T13:13:38;5.07;;;4.33;;
46308;SDS011;32037;50.820;6.494;2022-07-23T13:16:07;4.10;;;3.70;;
46308;SDS011;32037;50.820;6.494;2022-07-23T13:18:37;4.33;;;4.03;;
46308;SDS011;32037;50.820;6.494;2022-07-23T13:21:06;5.23;;;3.30;;
46308;SDS011;32037;50.820;6.494;2022-07-23T13:23:34;4.23;;;3.93;;
46308;SDS011;32037;50.820;6.494;2022-07-23T13:26:02;3.90;;;3.60;;
46308;SDS011;32037;50.820;6.494;2022-07-23T13:28:31;4.27;;;3.97;;
46308;SDS011;32037;50.820;6.494;2022-07-23T13:31:00;3.63;;;3.30;;
46308;SDS011;32037;50.820;6.494;2022-07-23T13:33:29;3.97;;;3.57;;
46308;SDS011;32037;50.820;6.494;2022-07-23T13:35:58;3.80;;;3.50;;
46308;SDS011;32037;50.820;6.494;2022-07-23T13:38:28;3.60;;;3.40;;
46308;SDS011;32037;50.820;6.494;2022-07-23T13:40:57;3.57;;;3.03;;
46308;SDS011;32037;50.820;6.494;2022-07-23T13:43:26;3.67;;;3.47;;
46308;SDS011;32037;50.820;6.494;2022-07-23T13:46:03;4.10;;;3.70;;
46308;SDS011;32037;50.820;6.494;2022-07-23T13:48:33;3.73;;;3.50;;
46308;SDS011;32037;50.820;6.494;2022-07-23T13:51:03;3.93;;;3.63;;
46308;SDS011;32037;50.820;6.494;2022-07-23T13:53:32;6.23;;;3.53;;
46308;SDS011;32037;50.820;6.494;2022-07-23T13:56:00;3.20;;;3.00;;
46308;SDS011;32037;50.820;6.494;2022-07-23T13:58:28;3.60;;;3.30;;
46308;SDS011;32037;50.820;6.494;2022-07-23T14:00:58;4.50;;;4.10;;
46308;SDS011;32037;50.820;6.494;2022-07-23T14:03:27;3.80;;;3.40;;
46308;SDS011;32037;50.820;6.494;2022-07-23T14:05:56;3.10;;;2.90;;
46308;SDS011;32037;50.820;6.494;2022-07-23T14:08:25;3.70;;;3.40;;
46308;SDS011;32037;50.820;6.494;2022-07-23T14:10:56;3.70;;;3.40;;
46308;SDS011;32037;50.820;6.494;2022-07-23T14:13:25;3.80;;;2.90;;
46308;SDS011;32037;50.820;6.494;2022-07-23T14:15:56;3.47;;;3.20;;
46308;SDS011;32037;50.820;6.494;2022-07-23T14:18:24;4.00;;;3.70;;
46308;SDS011;32037;50.820;6.494;2022-07-23T14:21:00;3.30;;;3.10;;
46308;SDS011;32037;50.820;6.494;2022-07-23T14:23:28;3.60;;;3.30;;
46308;SDS011;32037;50.820;6.494;2022-07-23T14:25:57;3.43;;;3.13;;
46308;SDS011;32037;50.820;6.494;2022-07-23T14:28:25;3.67;;;3.37;;
46308;SDS011;32037;50.820;6.494;2022-07-23T14:30:56;4.23;;;3.53;;
46308;SDS011;32037;50.820;6.494;2022-07-23T14:33:27;3.50;;;3.30;;
46308;SDS011;32037;50.820;6.494;2022-07-23T14:35:56;4.63;;;4.20;;
46308;SDS011;32037;50.820;6.494;2022-07-23T14:38:26;3.77;;;3.47;;
46308;SDS011;32037;50.820;6.494;2022-07-23T14:40:56;3.17;;;2.90;;
46308;SDS011;32037;50.820;6.494;2022-07-23T14:43:27;3.10;;;2.90;;
46308;SDS011;32037;50.820;6.494;2022-07-23T14:45:55;3.70;;;3.40;;
46308;SDS011;32037;50.820;6.494;2022-07-23T14:48:23;4.30;;;3.27;;
46308;SDS011;32037;50.820;6.494;2022-07-23T14:50:53;3.23;;;3.03;;
46308;SDS011;32037;50.820;6.494;2022-07-23T14:53:22;3.40;;;3.10;;
46308;SDS011;32037;50.820;6.494;2022-07-23T14:55:52;3.30;;;3.00;;
46308;SDS011;32037;50.820;6.494;2022-07-23T14:58:23;3.53;;;3.23;;
46308;SDS011;32037;50.820;6.494;2022-07-23T15:00:52;3.40;;;3.20;;
46308;SDS011;32037;50.820;6.494;2022-07-23T15:03:21;3.20;;;3.00;;
46308;SDS011;32037;50.820;6.494;2022-07-23T15:06:10;3.47;;;3.27;;
46308;SDS011;32037;50.820;6.494;2022-07-23T15:08:39;3.40;;;3.20;;
46308;SDS011;32037;50.820;6.494;2022-07-23T15:11:09;3.30;;;3.07;;
46308;SDS011;32037;50.820;6.494;2022-07-23T15:13:38;3.53;;;3.33;;